Besiktas Bosphorus — TCOG3 — position and weather

sailwx.info

Track history (hours):
 
Tides and Currents Weather Stations Pressure Air Temp Water Temp Dewpoint Dewpoint Depression Visibility Wind Speed Wind Dir Waves Ship Positions

Besiktas Bosphorus

Last reported at 2015-Jun-30 04:12 UTC. Time now 2015-Jul-04 01:36 UTC.
Position N 34°06' E 015°26'.

Length 274 m; draft 10.4 m.

Type: Ship (hazmat cat A). MMSI: 271000817.

Date/timePositionNaut miles runAvg speedWind from/ knotsBaromVisibWave heightAir tempDewpointWater temp
2015-Jun-30 04:12N 34°06' E 015°26'1014.8
2015-Jun-30 03:33N 34°08' E 015°14'1514.5
2015-Jun-30 02:32N 34°12' E 014°57'1414.5
2015-Jun-30 01:33N 34°14' E 014°40'1514.3
2015-Jun-30 00:30N 34°18' E 014°23'1414.4
2015-Jun-29 23:33N 34°21' E 014°07'1414.5
2015-Jun-29 22:34N 34°25' E 013°50'3414.6
2015-Jun-29 20:14N 34°32' E 013°09'1014.8
2015-Jun-29 19:34N 34°35' E 012°58'1514.8
2015-Jun-29 18:34N 34°38' E 012°40'1514.6
2015-Jun-29 17:34N 34°42' E 012°23'1514.5
2015-Jun-29 16:33N 34°38' E 012°06'1414.6
2015-Jun-29 15:33N 34°32' E 011°50'1514.7
2015-Jun-29 14:33N 34°27' E 011°33'4314.4
2015-Jun-29 11:34N 34°11' E 010°44'102 2.4
2015-Jun-27 17:10N 34°28' E 012°46'12 7.2
2015-Jun-27 15:27N 34°29' E 013°01'1010.0
2015-Jun-27 14:30N 34°30' E 013°13'1414.9
2015-Jun-27 13:33N 34°32' E 013°29'1514.8
2015-Jun-27 12:34N 34°35' E 013°47'1514.7
2015-Jun-27 11:33N 34°38' E 014°04'1514.7
2015-Jun-27 10:34N 34°41' E 014°22'1514.9
2015-Jun-27 09:33N 34°44' E 014°40'  
2015-Jun-24 17:20N 40°53' E 028°32'910.9
2015-Jun-24 16:30N 40°55' E 028°44'7 0.7
2015-Jun-24 06:24N 40°56' E 028°53'  
2015-Jun-20 12:30N 40°57' E 028°53'0 0.0
2015-Jun-20 11:06N 40°57' E 028°53'  
Track history (hours):
 
Tides and Currents Weather Stations Pressure Air Temp Water Temp Dewpoint Dewpoint Depression Visibility Wind Speed Wind Dir Waves Ship Positions

Besiktas Bosphorus

Last reported at 2015-Jun-30 04:12 UTC. Time now 2015-Jul-04 01:36 UTC.
Position N 34°06' E 015°26'.

Length 274 m; draft 10.4 m.

Type: Ship (hazmat cat A). MMSI: 271000817.

Date/timePositionNaut miles runAvg speedWind from/ knotsBaromVisibWave heightAir tempDewpointWater temp
2015-Jun-30 04:12N 34°06' E 015°26'1014.8
2015-Jun-30 03:33N 34°08' E 015°14'1514.5
2015-Jun-30 02:32N 34°12' E 014°57'1414.5
2015-Jun-30 01:33N 34°14' E 014°40'1514.3
2015-Jun-30 00:30N 34°18' E 014°23'1414.4
2015-Jun-29 23:33N 34°21' E 014°07'1414.5
2015-Jun-29 22:34N 34°25' E 013°50'3414.6
2015-Jun-29 20:14N 34°32' E 013°09'1014.8
2015-Jun-29 19:34N 34°35' E 012°58'1514.8
2015-Jun-29 18:34N 34°38' E 012°40'1514.6
2015-Jun-29 17:34N 34°42' E 012°23'1514.5
2015-Jun-29 16:33N 34°38' E 012°06'1414.6
2015-Jun-29 15:33N 34°32' E 011°50'1514.7
2015-Jun-29 14:33N 34°27' E 011°33'4314.4
2015-Jun-29 11:34N 34°11' E 010°44'102 2.4
2015-Jun-27 17:10N 34°28' E 012°46'12 7.2
2015-Jun-27 15:27N 34°29' E 013°01'1010.0
2015-Jun-27 14:30N 34°30' E 013°13'1414.9
2015-Jun-27 13:33N 34°32' E 013°29'1514.8
2015-Jun-27 12:34N 34°35' E 013°47'1514.7
2015-Jun-27 11:33N 34°38' E 014°04'1514.7
2015-Jun-27 10:34N 34°41' E 014°22'1514.9
2015-Jun-27 09:33N 34°44' E 014°40'  
2015-Jun-24 17:20N 40°53' E 028°32'910.9
2015-Jun-24 16:30N 40°55' E 028°44'7 0.7
2015-Jun-24 06:24N 40°56' E 028°53'  
2015-Jun-20 12:30N 40°57' E 028°53'0 0.0
2015-Jun-20 11:06N 40°57' E 028°53'  

Dump ship's entire track history